createdAt,value
2023-03-16T00:02:12.420Z,3.13
2023-03-16T00:04:39.622Z,6.03
2023-03-16T00:07:11.638Z,4.78
2023-03-16T00:09:43.436Z,4.87
2023-03-16T00:12:16.442Z,5.25
2023-03-16T00:17:20.216Z,2.55
2023-03-16T00:19:54.946Z,5.00
2023-03-16T00:22:28.449Z,6.60
2023-03-16T00:24:56.286Z,2.65
2023-03-16T00:27:25.766Z,6.07
2023-03-16T00:29:55.934Z,3.55
2023-03-16T00:32:27.472Z,3.60
2023-03-16T00:34:54.976Z,5.68
2023-03-16T00:37:24.151Z,2.95
2023-03-16T00:39:52.134Z,3.33
2023-03-16T00:42:20.306Z,5.32
2023-03-16T00:44:47.573Z,2.28
2023-03-16T00:47:14.884Z,4.75
2023-03-16T00:49:45.578Z,5.97
2023-03-16T00:52:16.214Z,3.17
2023-03-16T00:54:47.925Z,4.13
2023-03-16T00:57:21.610Z,4.97
2023-03-16T00:59:49.485Z,1.40
2023-03-16T01:02:19.947Z,5.22
2023-03-16T01:04:47.074Z,8.63
2023-03-16T01:07:15.309Z,3.13
2023-03-16T01:09:43.165Z,3.88
2023-03-16T01:12:17.233Z,3.83
2023-03-16T01:14:46.041Z,3.25
2023-03-16T01:17:14.753Z,3.95
2023-03-16T01:19:42.103Z,1.88
2023-03-16T01:22:10.353Z,5.22
2023-03-16T01:24:38.735Z,5.80
2023-03-16T01:27:06.245Z,3.50
2023-03-16T01:29:33.902Z,0.32
2023-03-16T01:32:02.348Z,2.42
2023-03-16T01:34:29.329Z,2.30
2023-03-16T01:36:56.659Z,7.78
2023-03-16T01:39:23.829Z,3.33
2023-03-16T01:41:51.328Z,3.50
2023-03-16T01:44:35.229Z,2.60
2023-03-16T01:47:02.228Z,2.90
2023-03-16T01:49:33.992Z,0.55
2023-03-16T01:52:21.555Z,4.28
2023-03-16T01:55:09.021Z,3.35
2023-03-16T01:57:42.606Z,4.35
2023-03-16T02:00:21.142Z,3.58
2023-03-16T02:02:54.865Z,2.65
2023-03-16T02:05:31.148Z,4.55
2023-03-16T02:07:59.121Z,2.03
2023-03-16T02:10:29.063Z,3.78
2023-03-16T02:12:58.125Z,3.20
2023-03-16T02:15:25.811Z,2.72
2023-03-16T02:17:53.077Z,4.13
2023-03-16T02:21:02.976Z,3.90
2023-03-16T02:23:32.649Z,1.77
2023-03-16T02:26:24.609Z,3.03
2023-03-16T02:29:17.839Z,2.03
2023-03-16T02:31:45.565Z,5.95
2023-03-16T02:34:16.204Z,7.13
2023-03-16T02:36:45.785Z,4.00
2023-03-16T02:39:12.733Z,2.85
2023-03-16T02:41:41.797Z,4.95
2023-03-16T02:44:20.395Z,2.95
2023-03-16T02:46:48.796Z,2.72
2023-03-16T02:49:51.462Z,3.50
2023-03-16T02:52:18.727Z,4.45
2023-03-16T02:54:45.799Z,3.28
2023-03-16T02:57:12.996Z,2.33
2023-03-16T02:59:40.065Z,3.72
2023-03-16T03:02:08.435Z,3.38
2023-03-16T03:04:36.169Z,1.67
2023-03-16T03:07:04.982Z,3.72
2023-03-16T03:09:33.033Z,2.28
2023-03-16T03:12:00.594Z,3.42
2023-03-16T03:14:28.593Z,2.08
2023-03-16T03:16:55.952Z,2.50
2023-03-16T03:19:23.229Z,2.35
2023-03-16T03:21:50.639Z,0.08
2023-03-16T03:24:18.793Z,3.45
2023-03-16T03:26:45.725Z,2.58
2023-03-16T03:29:12.796Z,2.55
2023-03-16T03:31:39.908Z,3.88
2023-03-16T03:34:07.047Z,3.50
2023-03-16T03:36:35.343Z,2.17
2023-03-16T03:39:05.099Z,1.88
2023-03-16T03:41:33.552Z,5.90
2023-03-16T03:44:01.063Z,3.15
2023-03-16T03:46:28.236Z,5.05
2023-03-16T03:48:55.510Z,2.45
2023-03-16T03:51:22.486Z,1.30
2023-03-16T03:53:49.518Z,1.85
2023-03-16T03:56:16.679Z,0.98
2023-03-16T03:58:43.676Z,1.08
2023-03-16T04:01:10.679Z,4.05
2023-03-16T04:03:37.629Z,2.47
2023-03-16T04:06:07.134Z,3.53
2023-03-16T04:08:34.986Z,3.50
2023-03-16T04:11:01.928Z,1.65
2023-03-16T04:13:28.998Z,5.95
2023-03-16T04:16:02.721Z,1.15
2023-03-16T04:18:38.594Z,3.90
2023-03-16T04:21:07.021Z,2.05
2023-03-16T04:23:34.855Z,1.95
2023-03-16T04:26:02.220Z,2.45
2023-03-16T04:28:29.166Z,2.42
2023-03-16T04:30:56.305Z,4.70
2023-03-16T04:33:23.314Z,5.97
2023-03-16T04:35:50.505Z,3.17
2023-03-16T04:38:17.640Z,3.28
2023-03-16T04:40:45.088Z,2.08
2023-03-16T04:43:13.641Z,4.47
2023-03-16T04:45:41.346Z,2.03
2023-03-16T04:48:08.431Z,1.35
2023-03-16T04:50:35.583Z,1.90
2023-03-16T04:53:04.551Z,3.75
2023-03-16T04:55:42.013Z,1.83
2023-03-16T04:58:09.105Z,1.85
2023-03-16T05:00:36.134Z,2.75
2023-03-16T05:03:04.183Z,1.25
2023-03-16T05:05:31.404Z,2.30
2023-03-16T05:07:59.070Z,1.35
2023-03-16T05:10:26.531Z,2.95
2023-03-16T05:12:54.827Z,2.58
2023-03-16T05:15:21.814Z,1.77
2023-03-16T05:17:48.766Z,1.45
2023-03-16T05:20:16.682Z,1.73
2023-03-16T05:22:46.149Z,3.20
2023-03-16T05:25:15.149Z,3.38
2023-03-16T05:27:48.748Z,1.75
2023-03-16T05:30:16.921Z,2.03
2023-03-16T05:32:44.466Z,2.30
2023-03-16T05:35:13.600Z,2.83
2023-03-16T05:37:44.067Z,2.47
2023-03-16T05:40:17.275Z,1.55
2023-03-16T05:42:50.098Z,2.10
2023-03-16T05:47:50.121Z,3.37
2023-03-16T05:50:20.514Z,0.45
2023-03-16T05:52:48.332Z,0.55
2023-03-16T05:55:22.822Z,2.65
2023-03-16T05:57:49.797Z,4.55
2023-03-16T06:00:20.991Z,7.72
2023-03-16T06:02:51.383Z,4.32
2023-03-16T06:05:21.835Z,3.70
2023-03-16T06:07:50.229Z,3.50
2023-03-16T06:10:18.234Z,3.08
2023-03-16T06:12:45.909Z,2.17
2023-03-16T06:15:13.176Z,3.35
2023-03-16T06:17:41.471Z,2.08
2023-03-16T06:20:11.569Z,2.15
2023-03-16T06:22:41.207Z,4.80
2023-03-16T06:25:10.155Z,1.02
2023-03-16T06:27:37.324Z,1.58
2023-03-16T06:30:10.333Z,3.17
2023-03-16T06:35:06.013Z,0.00
2023-03-16T06:37:33.533Z,0.57
2023-03-16T06:40:00.502Z,2.05
2023-03-16T06:42:27.628Z,1.98
2023-03-16T06:44:54.657Z,0.38
2023-03-16T06:47:21.620Z,0.30
2023-03-16T06:49:48.928Z,0.30
2023-03-16T06:52:15.884Z,0.43
2023-03-16T06:54:42.856Z,0.28
2023-03-16T06:57:09.972Z,0.70
2023-03-16T06:59:37.038Z,0.82
2023-03-16T07:02:04.077Z,0.52
2023-03-16T07:04:31.111Z,0.28
2023-03-16T07:06:58.254Z,0.68
2023-03-16T07:09:25.257Z,0.30
2023-03-16T07:11:53.091Z,0.47
2023-03-16T07:14:21.157Z,0.70
2023-03-16T07:16:48.150Z,0.10
2023-03-16T07:19:15.182Z,0.30
2023-03-16T07:21:42.133Z,0.38
2023-03-16T07:24:10.973Z,2.45
2023-03-16T07:26:38.585Z,0.47
2023-03-16T07:29:06.507Z,0.32
2023-03-16T07:31:34.766Z,0.85
2023-03-16T07:34:03.857Z,1.17
2023-03-16T07:36:31.454Z,0.40
2023-03-16T07:38:58.848Z,0.85
2023-03-16T07:41:25.851Z,0.52
2023-03-16T07:43:53.492Z,0.80
2023-03-16T07:46:20.570Z,0.08
2023-03-16T07:48:47.584Z,2.08
2023-03-16T07:51:14.893Z,1.60
2023-03-16T07:53:42.250Z,0.10
2023-03-16T07:56:09.480Z,1.02
2023-03-16T07:58:36.521Z,1.00
2023-03-16T08:01:04.024Z,0.22
2023-03-16T08:03:32.021Z,3.95
2023-03-16T08:05:59.398Z,2.08
2023-03-16T08:08:26.411Z,1.10
2023-03-16T08:10:55.611Z,0.10
2023-03-16T08:13:23.914Z,1.08
2023-03-16T08:15:58.829Z,0.10
2023-03-16T08:18:26.816Z,0.30
2023-03-16T08:20:54.920Z,1.05
2023-03-16T08:23:24.080Z,0.30
2023-03-16T08:25:57.308Z,0.20
2023-03-16T08:28:25.995Z,0.25
2023-03-16T08:30:55.524Z,0.30
2023-03-16T08:33:23.450Z,0.30
2023-03-16T08:35:50.869Z,0.20
2023-03-16T08:38:19.294Z,1.85
2023-03-16T08:40:48.586Z,0.57
2023-03-16T08:43:17.235Z,0.20
2023-03-16T08:45:48.749Z,0.20
2023-03-16T08:48:15.945Z,0.30
2023-03-16T08:50:44.368Z,2.28
2023-03-16T08:53:13.760Z,0.60
2023-03-16T08:55:41.863Z,0.10
2023-03-16T08:58:10.618Z,0.20
2023-03-16T09:00:38.626Z,1.60
2023-03-16T09:03:07.121Z,1.48
2023-03-16T09:05:34.426Z,0.65
2023-03-16T09:08:01.832Z,1.48
2023-03-16T09:10:29.308Z,0.75
2023-03-16T09:12:56.698Z,1.95
2023-03-16T09:15:24.082Z,0.45
2023-03-16T09:17:51.110Z,0.38
2023-03-16T09:20:22.768Z,0.50
2023-03-16T09:22:55.611Z,0.47
2023-03-16T09:25:24.186Z,5.65
2023-03-16T09:27:51.694Z,0.32
2023-03-16T09:30:19.005Z,0.75
2023-03-16T09:32:48.806Z,0.68
2023-03-16T09:35:16.121Z,0.63
2023-03-16T09:37:45.853Z,0.80
2023-03-16T09:40:28.620Z,2.00
2023-03-16T09:43:36.922Z,0.80
2023-03-16T09:46:14.381Z,0.43
2023-03-16T09:48:42.306Z,0.95
2023-03-16T09:51:44.714Z,0.65
2023-03-16T09:55:05.436Z,0.17
2023-03-16T09:57:41.151Z,3.30
2023-03-16T10:00:19.975Z,1.08
2023-03-16T10:03:11.745Z,0.55
2023-03-16T10:05:40.949Z,0.75
2023-03-16T10:08:24.699Z,0.55
2023-03-16T10:11:12.714Z,2.45
2023-03-16T10:14:17.526Z,1.13
2023-03-16T10:16:56.848Z,1.13
2023-03-16T10:19:45.973Z,0.30
2023-03-16T10:22:30.777Z,5.72
2023-03-16T10:25:20.085Z,0.75
2023-03-16T10:27:48.226Z,0.55
2023-03-16T10:30:32.493Z,0.73
2023-03-16T10:33:26.617Z,0.70
2023-03-16T10:36:34.765Z,0.50
2023-03-16T10:39:07.975Z,0.38
2023-03-16T10:41:43.704Z,1.77
2023-03-16T10:44:23.553Z,0.38
2023-03-16T10:47:06.089Z,0.30
2023-03-16T10:49:42.270Z,0.88
2023-03-16T10:52:34.749Z,0.20
2023-03-16T10:55:12.507Z,0.40
2023-03-16T10:57:49.404Z,1.20
2023-03-16T11:00:36.173Z,0.65
2023-03-16T11:03:22.898Z,0.30
2023-03-16T11:06:04.346Z,0.47
2023-03-16T11:08:41.896Z,0.85
2023-03-16T11:11:15.971Z,0.80
2023-03-16T11:13:48.855Z,0.10
2023-03-16T11:16:35.532Z,0.35
2023-03-16T11:19:18.967Z,0.32
2023-03-16T11:21:59.220Z,0.38
2023-03-16T11:24:39.844Z,1.15
2023-03-16T11:27:31.399Z,0.32
2023-03-16T11:30:21.004Z,0.63
2023-03-16T11:32:53.495Z,0.17
2023-03-16T11:35:59.365Z,0.60
2023-03-16T11:38:48.026Z,2.03
2023-03-16T11:42:09.554Z,4.20
2023-03-16T11:45:28.703Z,0.57
2023-03-16T11:48:39.184Z,0.20
2023-03-16T11:51:35.181Z,0.50
2023-03-16T11:54:25.722Z,0.95
2023-03-16T11:57:42.832Z,0.15
2023-03-16T12:00:31.270Z,1.13
2023-03-16T12:03:20.056Z,0.63
2023-03-16T12:05:58.953Z,0.20
2023-03-16T12:08:50.344Z,0.55
2023-03-16T12:11:36.796Z,0.22
2023-03-16T12:14:12.511Z,0.65
2023-03-16T12:17:04.770Z,1.65
2023-03-16T12:20:04.120Z,0.65
2023-03-16T12:22:42.164Z,0.52
2023-03-16T12:25:27.235Z,0.93
2023-03-16T12:28:02.725Z,1.27
2023-03-16T12:30:49.284Z,0.85
2023-03-16T12:33:28.363Z,0.43
2023-03-16T12:36:19.201Z,0.13
2023-03-16T12:38:53.281Z,0.85
2023-03-16T12:41:33.884Z,0.40
2023-03-16T12:44:22.839Z,0.47
2023-03-16T12:47:01.250Z,0.22
2023-03-16T12:49:34.476Z,0.32
2023-03-16T12:52:05.800Z,1.42
2023-03-16T12:54:33.521Z,0.60
2023-03-16T12:57:09.764Z,0.43
2023-03-16T12:59:46.661Z,0.20
2023-03-16T13:02:31.513Z,0.25
2023-03-16T13:05:28.731Z,0.38
2023-03-16T13:08:13.720Z,0.35
2023-03-16T13:10:40.873Z,0.68
2023-03-16T13:13:17.180Z,0.85
2023-03-16T13:15:47.562Z,0.22
2023-03-16T13:18:17.538Z,0.85
2023-03-16T13:21:14.448Z,0.73
2023-03-16T13:23:59.492Z,0.63
2023-03-16T13:26:41.297Z,1.00
2023-03-16T13:29:23.756Z,0.73
2023-03-16T13:31:52.220Z,0.17
2023-03-16T13:34:39.931Z,0.45
2023-03-16T13:37:16.728Z,0.82
2023-03-16T13:40:05.252Z,0.10
2023-03-16T13:42:33.939Z,0.77
2023-03-16T13:45:15.383Z,0.77
2023-03-16T13:47:46.034Z,0.20
2023-03-16T13:50:15.059Z,0.30
2023-03-16T13:52:44.645Z,0.85
2023-03-16T13:55:18.257Z,0.90
2023-03-16T13:57:46.546Z,0.95
2023-03-16T14:00:25.660Z,0.38
2023-03-16T14:02:57.085Z,0.77
2023-03-16T14:05:31.916Z,0.82
2023-03-16T14:08:00.914Z,0.70
2023-03-16T14:10:36.850Z,0.55
2023-03-16T14:13:34.119Z,0.50
2023-03-16T14:16:17.671Z,1.00
2023-03-16T14:18:51.604Z,0.90
2023-03-16T14:21:26.570Z,0.90
2023-03-16T14:24:00.348Z,2.40
2023-03-16T14:26:27.928Z,0.82
2023-03-16T14:29:24.956Z,0.00
2023-03-16T14:31:52.153Z,1.27
2023-03-16T14:34:39.555Z,0.35
2023-03-16T14:37:17.621Z,1.38
2023-03-16T14:39:45.698Z,0.38
2023-03-16T14:42:27.483Z,1.10
2023-03-16T14:44:54.764Z,2.22
2023-03-16T14:47:31.027Z,0.60
2023-03-16T14:50:17.635Z,0.55
2023-03-16T14:52:45.860Z,2.28
2023-03-16T14:55:19.412Z,1.35
2023-03-16T14:57:46.819Z,1.85
2023-03-16T15:00:16.672Z,1.33
2023-03-16T15:02:54.433Z,1.45
2023-03-16T15:05:30.620Z,0.60
2023-03-16T15:07:58.145Z,0.80
2023-03-16T15:10:30.107Z,0.63
2023-03-16T15:13:06.114Z,0.82
2023-03-16T15:15:33.106Z,1.00
2023-03-16T15:18:00.605Z,3.00
2023-03-16T15:20:35.928Z,0.52
2023-03-16T15:23:04.916Z,0.30
2023-03-16T15:25:41.322Z,0.30
2023-03-16T15:28:21.272Z,0.88
2023-03-16T15:30:58.178Z,0.88
2023-03-16T15:33:26.606Z,0.52
2023-03-16T15:35:56.356Z,0.20
2023-03-16T15:38:24.228Z,0.52
2023-03-16T15:40:52.189Z,0.32
2023-03-16T15:43:28.941Z,0.82
2023-03-16T15:45:58.840Z,1.00
2023-03-16T15:48:27.113Z,1.55
2023-03-16T15:50:58.835Z,1.52
2023-03-16T15:53:51.310Z,0.93
2023-03-16T15:56:29.897Z,1.60
2023-03-16T15:59:03.890Z,3.33
2023-03-16T16:01:44.998Z,1.40
2023-03-16T16:04:21.747Z,0.40
2023-03-16T16:06:52.920Z,1.10
2023-03-16T16:09:20.293Z,1.33
2023-03-16T16:11:49.037Z,5.40
2023-03-16T16:14:21.254Z,3.03
2023-03-16T16:16:48.303Z,1.60
2023-03-16T16:19:16.378Z,0.38
2023-03-16T16:21:43.850Z,1.10
2023-03-16T16:24:11.322Z,2.38
2023-03-16T16:26:52.097Z,4.60
2023-03-16T16:31:55.426Z,1.60
2023-03-16T16:34:28.030Z,0.28
2023-03-16T16:36:57.318Z,0.63
2023-03-16T16:39:24.853Z,2.17
2023-03-16T16:41:57.098Z,1.45
2023-03-16T16:44:29.744Z,1.50
2023-03-16T16:46:59.683Z,2.78
2023-03-16T16:49:30.668Z,0.70
2023-03-16T16:51:58.945Z,0.65
2023-03-16T16:54:30.103Z,1.35
2023-03-16T16:56:59.026Z,1.08
2023-03-16T16:59:36.903Z,2.05
2023-03-16T17:02:33.105Z,1.00
2023-03-16T17:05:00.243Z,2.13
2023-03-16T17:07:27.394Z,2.28
2023-03-16T17:10:00.330Z,1.77
2023-03-16T17:14:56.868Z,1.55
2023-03-16T17:17:23.938Z,3.40
2023-03-16T17:19:51.622Z,2.83
2023-03-16T17:22:28.558Z,1.33
2023-03-16T17:24:55.820Z,2.35
2023-03-16T17:27:31.370Z,2.40
2023-03-16T17:29:58.639Z,0.90
2023-03-16T17:32:26.124Z,1.52
2023-03-16T17:34:53.498Z,2.88
2023-03-16T17:37:22.199Z,1.73
2023-03-16T17:39:49.342Z,2.70
2023-03-16T17:42:19.722Z,2.40
2023-03-16T17:44:50.812Z,1.85
2023-03-16T17:47:27.410Z,1.77
2023-03-16T17:49:56.912Z,2.75
2023-03-16T17:52:28.400Z,2.45
2023-03-16T17:54:55.949Z,5.28
2023-03-16T17:57:33.506Z,2.20
2023-03-16T18:00:05.001Z,1.83
2023-03-16T18:03:01.636Z,2.08
2023-03-16T18:05:32.774Z,3.10
2023-03-16T18:08:13.028Z,3.58
2023-03-16T18:10:40.704Z,3.13
2023-03-16T18:13:26.838Z,2.70
2023-03-16T18:15:55.880Z,3.70
2023-03-16T18:18:29.695Z,3.15
2023-03-16T18:20:57.756Z,5.75
2023-03-16T18:23:29.773Z,12.35
2023-03-16T18:26:03.542Z,7.70
2023-03-16T18:28:31.772Z,4.32
2023-03-16T18:30:59.889Z,4.28
2023-03-16T18:33:33.690Z,5.95
2023-03-16T18:36:15.735Z,5.68
2023-03-16T18:38:50.488Z,5.47
2023-03-16T18:41:22.850Z,5.30
2023-03-16T18:43:58.813Z,4.30
2023-03-16T18:46:40.266Z,4.85
2023-03-16T18:49:16.815Z,4.72
2023-03-16T18:51:48.303Z,3.08
2023-03-16T18:54:31.409Z,3.30
2023-03-16T18:59:27.590Z,3.58
2023-03-16T19:01:54.737Z,5.38
2023-03-16T19:04:29.343Z,5.53
2023-03-16T19:06:57.366Z,3.35
2023-03-16T19:09:28.881Z,3.63
2023-03-16T19:11:56.191Z,4.15
2023-03-16T19:14:28.447Z,2.92
2023-03-16T19:16:56.150Z,2.70
2023-03-16T19:19:24.409Z,4.53
2023-03-16T19:21:58.878Z,4.25
2023-03-16T19:24:44.092Z,3.63
2023-03-16T19:27:23.970Z,3.70
2023-03-16T19:29:52.296Z,2.38
2023-03-16T19:32:21.802Z,4.93
2023-03-16T19:34:49.109Z,3.47
2023-03-16T19:37:18.157Z,5.43
2023-03-16T19:39:46.051Z,2.13
2023-03-16T19:42:43.306Z,3.03
2023-03-16T19:45:27.345Z,3.92
2023-03-16T19:47:54.482Z,2.75
2023-03-16T19:50:25.656Z,4.50
2023-03-16T19:52:53.963Z,3.85
2023-03-16T19:55:25.180Z,3.30
2023-03-16T19:58:07.438Z,4.10
2023-03-16T20:00:35.246Z,2.42
2023-03-16T20:03:02.290Z,3.17
2023-03-16T20:05:30.974Z,4.03
2023-03-16T20:08:00.962Z,4.30
2023-03-16T20:10:30.213Z,2.88
2023-03-16T20:13:00.624Z,2.25
2023-03-16T20:15:32.869Z,2.58
2023-03-16T20:18:00.122Z,4.15
2023-03-16T20:20:30.939Z,2.13
2023-03-16T20:22:59.735Z,4.72
2023-03-16T20:25:32.507Z,3.60
2023-03-16T20:30:30.710Z,3.10
2023-03-16T20:32:58.155Z,3.20
2023-03-16T20:35:29.499Z,4.30
2023-03-16T20:37:56.922Z,4.25
2023-03-16T20:40:24.263Z,4.20
2023-03-16T20:42:52.371Z,4.10
2023-03-16T20:45:26.283Z,3.70
2023-03-16T20:47:54.159Z,2.90
2023-03-16T20:50:27.401Z,3.90
2023-03-16T20:52:55.516Z,1.92
2023-03-16T20:55:27.101Z,2.47
2023-03-16T20:57:55.426Z,4.22
2023-03-16T21:00:34.770Z,2.53
2023-03-16T21:03:05.560Z,3.28
2023-03-16T21:05:32.615Z,3.63
2023-03-16T21:07:59.688Z,4.07
2023-03-16T21:10:28.020Z,3.65
2023-03-16T21:12:57.519Z,6.10
2023-03-16T21:15:31.592Z,2.97
2023-03-16T21:18:07.988Z,6.97
2023-03-16T21:20:36.065Z,4.43
2023-03-16T21:23:03.519Z,4.05
2023-03-16T21:25:42.712Z,5.47
2023-03-16T21:28:12.086Z,3.28
2023-03-16T21:30:45.792Z,5.15
2023-03-16T21:33:39.311Z,4.15
2023-03-16T21:36:14.773Z,4.20
2023-03-16T21:38:42.009Z,3.42
2023-03-16T21:41:09.352Z,3.03
2023-03-16T21:43:36.395Z,4.68
2023-03-16T21:46:04.410Z,2.88
2023-03-16T21:48:40.211Z,2.38
2023-03-16T21:51:29.012Z,3.28
2023-03-16T21:53:56.451Z,4.10
2023-03-16T21:56:26.167Z,3.00
2023-03-16T21:58:54.514Z,4.18
2023-03-16T22:01:29.070Z,4.68
2023-03-16T22:04:02.787Z,9.40
2023-03-16T22:06:29.918Z,4.18
2023-03-16T22:08:59.646Z,5.22
2023-03-16T22:11:29.804Z,4.78
2023-03-16T22:13:59.033Z,5.40
2023-03-16T22:16:31.439Z,4.03
2023-03-16T22:18:58.674Z,4.75
2023-03-16T22:21:36.380Z,4.70
2023-03-16T22:24:23.515Z,4.35
2023-03-16T22:26:51.947Z,3.83
2023-03-16T22:29:25.408Z,5.10
2023-03-16T22:32:01.362Z,2.80
2023-03-16T22:34:42.710Z,3.72
2023-03-16T22:37:13.168Z,3.20
2023-03-16T22:39:40.858Z,3.95
2023-03-16T22:42:33.601Z,3.97
2023-03-16T22:45:01.061Z,4.07
2023-03-16T22:47:35.284Z,5.50
2023-03-16T22:50:02.234Z,4.60
2023-03-16T22:52:35.251Z,3.75
2023-03-16T22:55:05.902Z,3.25
2023-03-16T22:57:33.328Z,2.28
2023-03-16T23:00:07.048Z,3.65
2023-03-16T23:02:34.128Z,3.50
2023-03-16T23:05:01.289Z,3.03
2023-03-16T23:07:28.348Z,3.72
2023-03-16T23:09:55.718Z,3.83
2023-03-16T23:12:22.785Z,5.05
2023-03-16T23:14:49.838Z,3.80
2023-03-16T23:17:22.365Z,4.53
2023-03-16T23:19:49.613Z,2.08
2023-03-16T23:22:17.005Z,3.20
2023-03-16T23:24:44.074Z,3.50
2023-03-16T23:27:21.720Z,6.60
2023-03-16T23:29:48.881Z,2.22
2023-03-16T23:32:19.410Z,2.90
2023-03-16T23:34:46.442Z,2.63
2023-03-16T23:37:13.458Z,3.45
2023-03-16T23:39:40.600Z,4.15
2023-03-16T23:42:07.826Z,4.70
2023-03-16T23:44:35.443Z,3.28
2023-03-16T23:47:02.468Z,2.10
2023-03-16T23:49:32.814Z,3.33
2023-03-16T23:52:01.719Z,2.95
2023-03-16T23:54:31.869Z,4.93
2023-03-16T23:56:58.992Z,3.08
2023-03-16T23:59:27.360Z,3.05
